Girolata — FPOD — position and weather

sailwx.info

Track history (hours):
 
Tides and Currents Weather Stations Pressure Air Temp Water Temp Dewpoint Dewpoint Depression Visibility Wind Speed Wind Dir Waves Ship Positions

Girolata

Last reported at 2018-Feb-19 07:23 UTC. Time now 2018-Feb-19 07:46 UTC.
Position N 43°19' E 005°22'.

Length 177 m; beam 27 m.

Type: Ship (hazmat cat A). MMSI: 226245000.

Date/timePositionNaut miles runAvg speedWind from/ knotsBaromVisibWave heightAir tempDewpointWater temp
2018-Feb-19 07:23N 43°19' E 005°22'0 0.0
2018-Feb-19 06:59N 43°19' E 005°22'0 0.0
2018-Feb-19 06:29N 43°19' E 005°22'0 0.0
2018-Feb-19 06:00N 43°19' E 005°22'0 0.3
2018-Feb-19 05:30N 43°19' E 005°22'510.2
2018-Feb-19 05:00N 43°14' E 005°18'3 0.1
2018-Feb-17 18:52N 43°12' E 005°19'412.0
2018-Feb-17 18:30N 43°16' E 005°20'3 6.5
2018-Feb-17 18:00N 43°19' E 005°22'0 0.0
2018-Feb-17 17:28N 43°19' E 005°22'0 0.0
2018-Feb-17 16:52N 43°19' E 005°22'0 0.0
2018-Feb-17 16:28N 43°19' E 005°22'0 0.0
2018-Feb-17 15:58N 43°19' E 005°22'0 0.0
2018-Feb-17 15:28N 43°19' E 005°22'0 0.0
2018-Feb-17 14:58N 43°19' E 005°22'0 0.0
2018-Feb-17 14:28N 43°19' E 005°22'0 0.0
2018-Feb-17 13:58N 43°19' E 005°22'0 0.0
2018-Feb-17 13:28N 43°19' E 005°22'0 0.0
2018-Feb-17 12:58N 43°19' E 005°22'0 0.0
2018-Feb-17 12:28N 43°19' E 005°22'0 0.0
2018-Feb-17 11:58N 43°19' E 005°22'0 0.0
2018-Feb-17 11:28N 43°19' E 005°22'0 0.0
2018-Feb-17 10:58N 43°19' E 005°22'0 0.0
2018-Feb-17 10:28N 43°19' E 005°22'0 0.0
2018-Feb-17 09:46N 43°19' E 005°22'0 0.0
2018-Feb-17 09:10N 43°19' E 005°22'0 0.0
2018-Feb-17 08:58N 43°19' E 005°22'0 0.0
2018-Feb-17 08:28N 43°19' E 005°22'0 0.0
2018-Feb-17 07:58N 43°19' E 005°22'0 0.0
2018-Feb-17 07:28N 43°19' E 005°22'0 0.0
2018-Feb-17 06:58N 43°19' E 005°22'0 0.0
2018-Feb-17 06:22N 43°19' E 005°22'0 0.0
2018-Feb-17 05:55N 43°19' E 005°22'0 0.1
2018-Feb-17 05:30N 43°19' E 005°22'4 8.7
2018-Feb-17 05:01N 43°15' E 005°18'4 0.1
2018-Feb-15 19:20N 43°12' E 005°19'515.0
2018-Feb-15 19:00N 43°17' E 005°20'2 4.8
2018-Feb-15 18:30N 43°19' E 005°22'0 0.0
2018-Feb-15 17:59N 43°19' E 005°22'0 0.0
2018-Feb-15 17:29N 43°19' E 005°22'0 0.0
2018-Feb-15 16:59N 43°19' E 005°22'0 0.0
2018-Feb-15 16:29N 43°19' E 005°22'0 0.0
2018-Feb-15 15:53N 43°19' E 005°22'0 0.0
2018-Feb-15 15:14N 43°19' E 005°22'0 0.0
2018-Feb-15 14:59N 43°19' E 005°22'0 0.0
2018-Feb-15 14:29N 43°19' E 005°22'0 0.0
2018-Feb-15 13:59N 43°19' E 005°22'0 0.0
2018-Feb-15 13:29N 43°19' E 005°22'0 0.0
2018-Feb-15 12:53N 43°19' E 005°22'0 0.0
2018-Feb-15 12:26N 43°19' E 005°22'0 0.0
2018-Feb-15 11:59N 43°19' E 005°22'0 0.0
2018-Feb-15 11:29N 43°19' E 005°22'0 0.0
2018-Feb-15 10:53N 43°19' E 005°22'0 0.0
2018-Feb-15 10:29N 43°19' E 005°22'0 0.0
2018-Feb-15 09:47N 43°19' E 005°22'0 0.0
2018-Feb-15 09:23N 43°19' E 005°22'0 0.0
2018-Feb-15 08:59N 43°19' E 005°22'0 0.0
2018-Feb-15 08:29N 43°19' E 005°22'0 0.0
2018-Feb-15 07:53N 43°19' E 005°22'0 0.0
2018-Feb-15 07:30N 43°19' E 005°22'0 0.0
2018-Feb-15 07:00N 43°19' E 005°22'0 0.0
2018-Feb-15 06:30N 43°19' E 005°22'0 0.0
2018-Feb-15 06:00N 43°19' E 005°22'1 2.6
2018-Feb-15 05:30N 43°18' E 005°21'511.0
2018-Feb-15 05:01N 43°13' E 005°18'1 0.0
2018-Feb-13 19:34N 43°12' E 005°19'118.2
2018-Feb-13 19:31N 43°13' E 005°18'612.5
2018-Feb-13 19:00N 43°19' E 005°22'0 0.4
2018-Feb-13 18:28N 43°19' E 005°22'0 0.0
2018-Feb-13 17:58N 43°19' E 005°22'0 0.0
2018-Feb-13 17:28N 43°19' E 005°22'0 0.0
2018-Feb-13 16:55N 43°19' E 005°22'0 0.0
2018-Feb-13 16:28N 43°19' E 005°22'0 0.0
2018-Feb-13 15:58N 43°19' E 005°22'0 0.0
2018-Feb-13 15:30N 43°19' E 005°22'0 0.0
2018-Feb-13 15:01N 43°19' E 005°22'0 0.0
2018-Feb-13 14:30N 43°19' E 005°22'0 0.0
2018-Feb-13 14:00N 43°19' E 005°22'0 0.0
2018-Feb-13 13:31N 43°19' E 005°22'0 0.0
2018-Feb-13 13:00N 43°19' E 005°22'0 0.0
2018-Feb-13 12:31N 43°19' E 005°22'0 0.0
2018-Feb-13 12:00N 43°19' E 005°22'0 0.0
2018-Feb-13 11:31N 43°19' E 005°22'0 0.0
2018-Feb-13 11:01N 43°19' E 005°22'0 0.0
2018-Feb-13 10:31N 43°19' E 005°22'0 0.0
2018-Feb-13 10:00N 43°19' E 005°22'0 0.0
2018-Feb-13 09:30N 43°19' E 005°22'0 0.0
2018-Feb-13 08:59N 43°19' E 005°22'0 0.0
2018-Feb-13 08:30N 43°19' E 005°22'0 0.0
2018-Feb-13 08:01N 43°19' E 005°22'0 0.0
2018-Feb-13 07:30N 43°19' E 005°22'0 0.0
2018-Feb-13 07:00N 43°19' E 005°22'0 0.0
2018-Feb-13 06:30N 43°19' E 005°22'0 0.0
2018-Feb-13 06:00N 43°19' E 005°22'1 2.5
2018-Feb-13 05:30N 43°18' E 005°21'510.3
2018-Feb-13 05:00N 43°13' E 005°18'8017.5
2018-Feb-13 00:26N 42°60' E 007°06'819.1
2018-Feb-13 00:00N 43°02' E 007°17'87 3.0
2018-Feb-11 18:49N 43°12' E 005°19'514.7
2018-Feb-11 18:30N 43°16' E 005°20'3 5.6
2018-Feb-11 18:00N 43°19' E 005°22'0 0.0
2018-Feb-11 17:26N 43°19' E 005°22'0 0.0
2018-Feb-11 16:56N 43°19' E 005°22'0 0.0
2018-Feb-11 16:26N 43°19' E 005°22'0 0.0
2018-Feb-11 15:56N 43°19' E 005°22'0 0.0
2018-Feb-11 15:26N 43°19' E 005°22'0 0.0
2018-Feb-11 14:59N 43°19' E 005°22'0 0.0
2018-Feb-11 14:30N 43°19' E 005°22'0 0.0
2018-Feb-11 13:59N 43°19' E 005°22'0 0.0
2018-Feb-11 13:30N 43°19' E 005°22'0 0.0
2018-Feb-11 13:00N 43°19' E 005°22'0 0.0
2018-Feb-11 12:30N 43°19' E 005°22'0 0.0
2018-Feb-11 12:00N 43°19' E 005°22'0 0.0
2018-Feb-11 11:29N 43°19' E 005°22'0 0.0
2018-Feb-11 11:00N 43°19' E 005°22'0 0.0
2018-Feb-11 10:30N 43°19' E 005°22'0 0.0
2018-Feb-11 10:00N 43°19' E 005°22'0 0.0
2018-Feb-11 09:30N 43°19' E 005°22'0 0.0
2018-Feb-11 08:58N 43°19' E 005°22'0 0.0
2018-Feb-11 08:30N 43°19' E 005°22'0 0.0
2018-Feb-11 08:00N 43°19' E 005°22'0 0.0
2018-Feb-11 07:30N 43°19' E 005°22'0 0.0
2018-Feb-11 07:00N 43°19' E 005°22'0 0.1
2018-Feb-11 06:30N 43°19' E 005°22'4 7.5
2018-Feb-11 06:00N 43°16' E 005°18'  
Track history (hours):
 
Tides and Currents Weather Stations Pressure Air Temp Water Temp Dewpoint Dewpoint Depression Visibility Wind Speed Wind Dir Waves Ship Positions

Girolata

Last reported at 2018-Feb-19 07:23 UTC. Time now 2018-Feb-19 07:46 UTC.
Position N 43°19' E 005°22'.

Length 177 m; beam 27 m.

Type: Ship (hazmat cat A). MMSI: 226245000.

Date/timePositionNaut miles runAvg speedWind from/ knotsBaromVisibWave heightAir tempDewpointWater temp
2018-Feb-19 07:23N 43°19' E 005°22'0 0.0
2018-Feb-19 06:59N 43°19' E 005°22'0 0.0
2018-Feb-19 06:29N 43°19' E 005°22'0 0.0
2018-Feb-19 06:00N 43°19' E 005°22'0 0.3
2018-Feb-19 05:30N 43°19' E 005°22'510.2
2018-Feb-19 05:00N 43°14' E 005°18'3 0.1
2018-Feb-17 18:52N 43°12' E 005°19'412.0
2018-Feb-17 18:30N 43°16' E 005°20'3 6.5
2018-Feb-17 18:00N 43°19' E 005°22'0 0.0
2018-Feb-17 17:28N 43°19' E 005°22'0 0.0
2018-Feb-17 16:52N 43°19' E 005°22'0 0.0
2018-Feb-17 16:28N 43°19' E 005°22'0 0.0
2018-Feb-17 15:58N 43°19' E 005°22'0 0.0
2018-Feb-17 15:28N 43°19' E 005°22'0 0.0
2018-Feb-17 14:58N 43°19' E 005°22'0 0.0
2018-Feb-17 14:28N 43°19' E 005°22'0 0.0
2018-Feb-17 13:58N 43°19' E 005°22'0 0.0
2018-Feb-17 13:28N 43°19' E 005°22'0 0.0
2018-Feb-17 12:58N 43°19' E 005°22'0 0.0
2018-Feb-17 12:28N 43°19' E 005°22'0 0.0
2018-Feb-17 11:58N 43°19' E 005°22'0 0.0
2018-Feb-17 11:28N 43°19' E 005°22'0 0.0
2018-Feb-17 10:58N 43°19' E 005°22'0 0.0
2018-Feb-17 10:28N 43°19' E 005°22'0 0.0
2018-Feb-17 09:46N 43°19' E 005°22'0 0.0
2018-Feb-17 09:10N 43°19' E 005°22'0 0.0
2018-Feb-17 08:58N 43°19' E 005°22'0 0.0
2018-Feb-17 08:28N 43°19' E 005°22'0 0.0
2018-Feb-17 07:58N 43°19' E 005°22'0 0.0
2018-Feb-17 07:28N 43°19' E 005°22'0 0.0
2018-Feb-17 06:58N 43°19' E 005°22'0 0.0
2018-Feb-17 06:22N 43°19' E 005°22'0 0.0
2018-Feb-17 05:55N 43°19' E 005°22'0 0.1
2018-Feb-17 05:30N 43°19' E 005°22'4 8.7
2018-Feb-17 05:01N 43°15' E 005°18'4 0.1
2018-Feb-15 19:20N 43°12' E 005°19'515.0
2018-Feb-15 19:00N 43°17' E 005°20'2 4.8
2018-Feb-15 18:30N 43°19' E 005°22'0 0.0
2018-Feb-15 17:59N 43°19' E 005°22'0 0.0
2018-Feb-15 17:29N 43°19' E 005°22'0 0.0
2018-Feb-15 16:59N 43°19' E 005°22'0 0.0
2018-Feb-15 16:29N 43°19' E 005°22'0 0.0
2018-Feb-15 15:53N 43°19' E 005°22'0 0.0
2018-Feb-15 15:14N 43°19' E 005°22'0 0.0
2018-Feb-15 14:59N 43°19' E 005°22'0 0.0
2018-Feb-15 14:29N 43°19' E 005°22'0 0.0
2018-Feb-15 13:59N 43°19' E 005°22'0 0.0
2018-Feb-15 13:29N 43°19' E 005°22'0 0.0
2018-Feb-15 12:53N 43°19' E 005°22'0 0.0
2018-Feb-15 12:26N 43°19' E 005°22'0 0.0
2018-Feb-15 11:59N 43°19' E 005°22'0 0.0
2018-Feb-15 11:29N 43°19' E 005°22'0 0.0
2018-Feb-15 10:53N 43°19' E 005°22'0 0.0
2018-Feb-15 10:29N 43°19' E 005°22'0 0.0
2018-Feb-15 09:47N 43°19' E 005°22'0 0.0
2018-Feb-15 09:23N 43°19' E 005°22'0 0.0
2018-Feb-15 08:59N 43°19' E 005°22'0 0.0
2018-Feb-15 08:29N 43°19' E 005°22'0 0.0
2018-Feb-15 07:53N 43°19' E 005°22'0 0.0
2018-Feb-15 07:30N 43°19' E 005°22'0 0.0
2018-Feb-15 07:00N 43°19' E 005°22'0 0.0
2018-Feb-15 06:30N 43°19' E 005°22'0 0.0
2018-Feb-15 06:00N 43°19' E 005°22'1 2.6
2018-Feb-15 05:30N 43°18' E 005°21'511.0
2018-Feb-15 05:01N 43°13' E 005°18'1 0.0
2018-Feb-13 19:34N 43°12' E 005°19'118.2
2018-Feb-13 19:31N 43°13' E 005°18'612.5
2018-Feb-13 19:00N 43°19' E 005°22'0 0.4
2018-Feb-13 18:28N 43°19' E 005°22'0 0.0
2018-Feb-13 17:58N 43°19' E 005°22'0 0.0
2018-Feb-13 17:28N 43°19' E 005°22'0 0.0
2018-Feb-13 16:55N 43°19' E 005°22'0 0.0
2018-Feb-13 16:28N 43°19' E 005°22'0 0.0
2018-Feb-13 15:58N 43°19' E 005°22'0 0.0
2018-Feb-13 15:30N 43°19' E 005°22'0 0.0
2018-Feb-13 15:01N 43°19' E 005°22'0 0.0
2018-Feb-13 14:30N 43°19' E 005°22'0 0.0
2018-Feb-13 14:00N 43°19' E 005°22'0 0.0
2018-Feb-13 13:31N 43°19' E 005°22'0 0.0
2018-Feb-13 13:00N 43°19' E 005°22'0 0.0
2018-Feb-13 12:31N 43°19' E 005°22'0 0.0
2018-Feb-13 12:00N 43°19' E 005°22'0 0.0
2018-Feb-13 11:31N 43°19' E 005°22'0 0.0
2018-Feb-13 11:01N 43°19' E 005°22'0 0.0
2018-Feb-13 10:31N 43°19' E 005°22'0 0.0
2018-Feb-13 10:00N 43°19' E 005°22'0 0.0
2018-Feb-13 09:30N 43°19' E 005°22'0 0.0
2018-Feb-13 08:59N 43°19' E 005°22'0 0.0
2018-Feb-13 08:30N 43°19' E 005°22'0 0.0
2018-Feb-13 08:01N 43°19' E 005°22'0 0.0
2018-Feb-13 07:30N 43°19' E 005°22'0 0.0
2018-Feb-13 07:00N 43°19' E 005°22'0 0.0
2018-Feb-13 06:30N 43°19' E 005°22'0 0.0
2018-Feb-13 06:00N 43°19' E 005°22'1 2.5
2018-Feb-13 05:30N 43°18' E 005°21'510.3
2018-Feb-13 05:00N 43°13' E 005°18'8017.5
2018-Feb-13 00:26N 42°60' E 007°06'819.1
2018-Feb-13 00:00N 43°02' E 007°17'87 3.0
2018-Feb-11 18:49N 43°12' E 005°19'514.7
2018-Feb-11 18:30N 43°16' E 005°20'3 5.6
2018-Feb-11 18:00N 43°19' E 005°22'0 0.0
2018-Feb-11 17:26N 43°19' E 005°22'0 0.0
2018-Feb-11 16:56N 43°19' E 005°22'0 0.0
2018-Feb-11 16:26N 43°19' E 005°22'0 0.0
2018-Feb-11 15:56N 43°19' E 005°22'0 0.0
2018-Feb-11 15:26N 43°19' E 005°22'0 0.0
2018-Feb-11 14:59N 43°19' E 005°22'0 0.0
2018-Feb-11 14:30N 43°19' E 005°22'0 0.0
2018-Feb-11 13:59N 43°19' E 005°22'0 0.0
2018-Feb-11 13:30N 43°19' E 005°22'0 0.0
2018-Feb-11 13:00N 43°19' E 005°22'0 0.0
2018-Feb-11 12:30N 43°19' E 005°22'0 0.0
2018-Feb-11 12:00N 43°19' E 005°22'0 0.0
2018-Feb-11 11:29N 43°19' E 005°22'0 0.0
2018-Feb-11 11:00N 43°19' E 005°22'0 0.0
2018-Feb-11 10:30N 43°19' E 005°22'0 0.0
2018-Feb-11 10:00N 43°19' E 005°22'0 0.0
2018-Feb-11 09:30N 43°19' E 005°22'0 0.0
2018-Feb-11 08:58N 43°19' E 005°22'0 0.0
2018-Feb-11 08:30N 43°19' E 005°22'0 0.0
2018-Feb-11 08:00N 43°19' E 005°22'0 0.0
2018-Feb-11 07:30N 43°19' E 005°22'0 0.0
2018-Feb-11 07:00N 43°19' E 005°22'0 0.1
2018-Feb-11 06:30N 43°19' E 005°22'4 7.5
2018-Feb-11 06:00N 43°16' E 005°18'  

Dump ship's entire track history